ラゴス の空港の天気 - METARとTAF

ムルタラ・モハンマド国際空港 ( DNMM / LOS ) - ナイジェリア ラゴス州、Ikeja
飛行場実況気象(Metar)
観測時間08/14 05:00 WAT (08/14 04:00 UTC)
風向・風速西南西 2m/s
視程10km以上
天気現象
少しの雲 雲底高度 240m
気温24℃
湿度89%
気圧1012hPa
METARDNMM 140400Z 24004KT 9999 FEW008 24/22 Q1012 NOSIG
過去の天気等 Google飛行場航空写真 Wunderground天気予報

過去48時間のMETAR

飛行場予報(TAF)
発表時間: 8/14 00:00 WAT (8/13 23:00 UTC)
予報対象時間: 14日1時 WAT ~ 15日7時 WAT
風向・風速不定 1m/s
視程8000m
全天の4割程度の雲 雲底高度 240m
14日5時 WAT ~ 14日9時 WAT に一時的に
視程4000m
天気現象もや
14日9時 WAT ~ 14日11時 WAT に徐々に
風向・風速西南西 5m/s
全天の8割程度の雲 雲底高度 370m
14日13時 WAT ~ 14日17時 WAT に一時的に
全天の4割程度の雲 雲底高度 400m
少しの積乱雲 雲底高度 610m
14日17時 WAT ~ 14日19時 WAT に徐々に
風向・風速不定 1m/s
少しの雲 雲底高度 240m
TAF DNMM 132300Z 1400/1506 VRB02KT 8000 SCT008
TEMPO 1404/1408 4000 BR
BECMG 1408/1410 24010KT BKN012
TEMPO 1412/1416 SCT013 FEW020CB
BECMG 1416/1418 VRB02KT FEW008